• Join FlightAware (Why Join?)
  • Login
  • US Flag 
12:38PM EDT


 

Airport Tracker/Info


-or-


 

Live Flight TrackerFlight Track Log ✈ N31DL ✈ 21-Jul-2013 ✈ KTYS - KFYE

Flight Track Log - Related Links

Times and Time Zones

All times are in EDT time to prevent confusion due to time zone crossing. See the N31DL flight status page for this flight to view local times or setup timezone preferences in your user account.

Time Position Orientation Groundspeed Altitude Reporting Facility
EDT Latitude Longitude Course Direction KTS MPH feet Rate Location/Type
11:49AM 35.7833 -84.2198 270° West  Level FlightAware Approximate
11:50AM 35.7819 -84.2673 264° West  Level FlightAware Approximate
11:51AM 35.7780 -84.3147 264° West  Level FlightAware Approximate
11:52AM 35.7734 -84.3659 264° West  Level Estimated
11:53AM 35.7687 -84.4171 264° West  Level Estimated
11:54AM 35.7640 -84.4683 264° West  Level Estimated
11:55AM 35.7593 -84.5195 264° West  Level Estimated
11:56AM 35.7546 -84.5707 264° West  Level Estimated
11:57AM 35.7498 -84.6219 263° West  Level Estimated
11:58AM 35.7450 -84.6731 263° West  Level Estimated
11:59AM 35.7402 -84.7243 263° West  Level Estimated
12:00PM 35.7354 -84.7755 263° West  Level Estimated
12:01PM 35.7305 -84.8267 263° West  Level Estimated
12:02PM 35.7257 -84.8778 263° West  Level Estimated
12:03PM 35.7208 -84.9290 263° West  Level Estimated
12:04PM 35.7159 -84.9801 263° West  Level Estimated
12:05PM 35.7109 -85.0313 263° West  Level Estimated
12:06PM 35.7060 -85.0824 263° West  Level Estimated
12:07PM 35.7010 -85.1336 263° West  Level Estimated
12:08PM 35.6960 -85.1847 263° West  Level Estimated
12:09PM 35.6910 -85.2358 263° West  Level Estimated
12:10PM 35.6859 -85.2869 263° West  Level Estimated
12:11PM 35.6809 -85.3381 263° West  Level Estimated
12:12PM 35.6758 -85.3892 263° West  Level Estimated
12:13PM 35.6707 -85.4403 263° West  Level Estimated
12:14PM 35.6656 -85.4913 263° West  Level Estimated
12:15PM 35.6604 -85.5424 263° West  Level Estimated
12:16PM 35.6552 -85.5935 263° West  Level Estimated
12:17PM 35.6501 -85.6440 263° West  Level Estimated
12:18PM 35.6449 -85.6945 263° West  Level Estimated
12:19PM 35.6398 -85.7450 263° West  Level Estimated
12:20PM 35.6345 -85.7955 263° West  Level Estimated
12:20PM 35.2519 -85.3356 263° West 140 161 5,900  Level Memphis Center
12:21PM 35.6293 -85.8460 263° West  Level Estimated
12:21PM 35.2494 -85.3764 266° West 140 161 6,000  Level Memphis Center
12:22PM 35.6241 -85.8965 263° West  Level Estimated
12:22PM 35.2492 -85.4244 270° West 140 161 6,000  Level Memphis Center
12:23PM 35.6188 -85.9470 263° West  Level Estimated
12:23PM 35.2447 -85.4706 263° West 140 161 6,000  Level Memphis Center
12:24PM 35.6135 -85.9975 263° West  Level Estimated
12:24PM 35.2444 -85.5164 270° West 140 161 5,900  Level Memphis Center
12:25PM 35.6082 -86.0480 263° West  Level Estimated
12:25PM 35.2381 -85.5650 261° West 140 161 5,900  Level Memphis Center
12:26PM 35.2314 -85.6111 260° West 140 161 6,000  Climbing Memphis Center
12:27PM 35.2292 -85.6569 267° West 140 161 5,900 -60 Descending Memphis Center
12:28PM 35.2308 -85.7028 273° West 140 161 5,900  Level Memphis Center
12:29PM 35.2347 -85.7508 276° West 140 161 6,000  Climbing Memphis Center
12:30PM 35.2364 -85.7964 273° West 140 161 5,900 -60 Descending Memphis Center
12:31PM 35.2422 -85.8419 279° West 140 161 5,900  Level Memphis Center
12:32PM 35.2481 -85.8900 278° West 140 161 5,900  Level Memphis Center
12:33PM 35.2519 -85.9381 276° West 140 161 5,900  Level Memphis Center
12:34PM 35.2681 -85.9803 295° West 140 161 5,900  Level Memphis Center
12:35PM 35.2922 -86.0172 309° West 140 161 6,000  Climbing Memphis Center
12:36PM 35.3128 -86.0672 297° West 146 168 5,900 -60 Descending Memphis Center
12:37PM 35.3225 -86.1072 287° West 146 168 5,900  Level Memphis Center
12:38PM 35.3344 -86.1525 288° West 146 168 5,900  Level Memphis Center
12:39PM 35.3358 -86.1956 272° West 141 162 5,900  Level Memphis Center
12:40PM 35.3269 -86.2419 257° West 141 162 6,000  Climbing Memphis Center
12:41PM 35.3222 -86.2881 263° West 141 162 5,900  Descending Memphis Center
12:42PM 35.3217 -86.3314 269° West 141 162 6,000  Climbing Memphis Center
12:43PM 35.3189 -86.3797 266° West 141 162 6,000 -60 Level Memphis Center
12:44PM 35.3144 -86.4308 264° West 141 162 5,900  Descending Memphis Center
12:45PM 35.3136 -86.4767 269° West 136 157 6,000  Climbing Memphis Center
12:46PM 35.3111 -86.5225 266° West 141 162 6,000 -60 Level Memphis Center
12:47PM 35.3125 -86.5708 272° West 141 162 5,900 -60 Descending Memphis Center
12:48PM 35.3097 -86.6167 266° West 141 162 5,900  Level Memphis Center
12:49PM 35.3153 -86.6625 278° West 141 162 6,000  Climbing Memphis Center
12:50PM 35.3208 -86.7106 278° West 141 162 6,000  Level Memphis Center
12:51PM 35.3244 -86.7586 275° West 141 162 6,000  Level Memphis Center
12:52PM 35.3233 -86.7994 268° West 141 162 6,000  Level Memphis Center
12:53PM 35.3247 -86.8478 272° West 141 162 6,000  Level Memphis Center
12:54PM 35.3178 -86.8939 260° West 141 162 6,000  Level Memphis Center
12:55PM 35.3022 -86.9353 245° Southwest 136 157 6,000  Level Memphis Center
12:56PM 35.2844 -86.9767 242° Southwest 136 157 6,000  Level Memphis Center
12:57PM 35.2669 -87.0156 241° Southwest 136 157 6,000  Level Memphis Center
12:58PM 35.2492 -87.0569 242° Southwest 141 162 6,000  Level Memphis Center
12:59PM 35.2336 -87.1033 248° West 141 162 6,000  Level Memphis Center
01:00PM 35.2161 -87.1444 242° Southwest 141 162 6,000  Level Memphis Center
01:01PM 35.1983 -87.1883 244° Southwest 141 162 6,000  Level Memphis Center
01:02PM 35.1786 -87.2272 238° Southwest 141 162 6,000  Level Memphis Center
01:03PM 35.1608 -87.2686 242° Southwest 135 155 6,000  Level Memphis Center
01:04PM 35.1472 -87.3097 248° West 140 161 6,000  Level Memphis Center
01:05PM 35.1400 -87.3556 259° West 135 155 6,000  Level Memphis Center
01:06PM 35.1347 -87.4017 262° West 135 155 6,000  Level Memphis Center
01:07PM 35.1275 -87.4475 259° West 135 155 6,000  Level Memphis Center
01:08PM 35.1222 -87.4908 262° West 135 155 6,000  Level Memphis Center
01:09PM 35.1128 -87.5344 255° West 135 155 6,000  Level Memphis Center
01:10PM 35.1033 -87.5778 255° West 135 155 6,000  Level Memphis Center
01:11PM 35.1064 -87.6208 275° West 135 155 6,000  Level Memphis Center
01:12PM 35.1136 -87.6664 281° West 140 161 6,000  Level Memphis Center
01:13PM 35.1253 -87.7142 287° West 140 161 6,000  Level Memphis Center
01:14PM 35.1367 -87.7594 287° West 140 161 6,000  Level Memphis Center
01:15PM 35.1478 -87.8050 287° West 145 167 6,000  Level Memphis Center
01:16PM 35.1592 -87.8503 287° West 145 167 6,000  Level Memphis Center
01:17PM 35.1706 -87.8956 287° West 145 167 6,000  Level Memphis Center
01:18PM 35.1800 -87.9436 284° West 145 167 6,000  Level Memphis Center
01:19PM 35.1850 -87.9892 278° West 145 167 6,000  Level Memphis Center
01:20PM 35.1919 -88.0347 281° West 145 167 6,000  Level Memphis Center
01:21PM 35.1969 -88.0803 278° West 145 167 6,000  Level Memphis Center
01:22PM 35.2042 -88.1283 280° West 145 167 6,000  Level Memphis Center
01:23PM 35.2114 -88.1739 281° West 145 167 6,000  Level Memphis Center
01:24PM 35.2203 -88.2194 283° West 140 161 6,000  Level Memphis Center
01:25PM 35.2169 -88.2678 265° West 140 161 6,000  Level Memphis Center
01:26PM 35.2261 -88.3108 285° West 140 161 6,000  Level Memphis Center
01:27PM 35.2558 -88.3406 321° Northwest 134 154 6,000  Level Memphis Center
01:28PM 35.2897 -88.3703 324° Northwest 139 160 6,000  Level Memphis Center
01:29PM 35.3236 -88.3975 327° Northwest 144 166 6,000  Level Memphis Center
01:30PM 35.3306 -88.4431 281° West 138 159 6,000  Level Memphis Center
01:31PM 35.3250 -88.4892 262° West 125 144 6,000  Level Memphis Center
01:32PM 35.3172 -88.5325 258° West 125 144 6,000  Level Memphis Center
01:33PM 35.3158 -88.5783 268° West 130 150 6,000  Level Memphis Center
01:34PM 35.3186 -88.6292 274° West 140 161 6,000  Level Memphis Center
01:35PM 35.3192 -88.6750 271° West 140 161 6,000  Level Memphis Center
01:36PM 35.3156 -88.7183 264° West 140 161 6,000  Level Memphis Center
01:37PM 35.3119 -88.7592 264° West 140 161 6,000  Level Memphis Center
01:38PM 35.3106 -88.8025 268° West 135 155 6,000  Level Memphis Center
01:39PM 35.3172 -88.8481 280° West 135 155 6,000  Level Memphis Center
01:40PM 35.3239 -88.8861 282° West 135 155 6,000  Level Memphis Center
01:41PM 35.3328 -88.9344 283° West 140 161 6,000  Level Memphis Center
01:42PM 35.3481 -88.9775 294° West 140 161 6,000  Level Memphis Center
01:43PM 35.3589 -89.0231 286° West 146 168 6,000  Level Memphis Center
01:44PM 35.3656 -89.0686 280° West 146 168 6,000  Level Memphis Center
01:45PM 35.3744 -89.1169 283° West 146 168 6,000 -300 Level Memphis Center
01:46PM 35.3875 -89.1625 289° West 141 162 5,400 -780 Descending Memphis Center
01:47PM 35.4089 -89.2081 300° West 147 169 4,500 -1,200 Descending Memphis Center
01:48PM 35.4133 -89.2539 277° West 147 169 3,000 -780 Descending Memphis Center
01:49PM 35.4303 -89.2944 297° West 147 169 3,000  Level Memphis Center